sensor_id;sensor_type;location;lat;lon;timestamp;P1;durP1;ratioP1;P2;durP2;ratioP2
31284;SDS011;56605;51.516;6.742;2022-12-07T00:01:10;19.13;;;11.45;;
31284;SDS011;56605;51.516;6.742;2022-12-07T00:03:35;17.52;;;12.05;;
31284;SDS011;56605;51.516;6.742;2022-12-07T00:06:03;20.48;;;11.98;;
31284;SDS011;56605;51.516;6.742;2022-12-07T00:08:29;19.13;;;12.27;;
31284;SDS011;56605;51.516;6.742;2022-12-07T00:10:54;20.73;;;11.98;;
31284;SDS011;56605;51.516;6.742;2022-12-07T00:13:19;21.70;;;12.63;;
31284;SDS011;56605;51.516;6.742;2022-12-07T00:15:45;18.08;;;12.02;;
31284;SDS011;56605;51.516;6.742;2022-12-07T00:18:10;19.85;;;12.40;;
31284;SDS011;56605;51.516;6.742;2022-12-07T00:20:35;20.15;;;12.30;;
31284;SDS011;56605;51.516;6.742;2022-12-07T00:23:00;30.25;;;13.77;;
31284;SDS011;56605;51.516;6.742;2022-12-07T00:25:25;18.88;;;11.98;;
31284;SDS011;56605;51.516;6.742;2022-12-07T00:27:52;19.00;;;12.73;;
31284;SDS011;56605;51.516;6.742;2022-12-07T00:30:17;19.95;;;12.60;;
31284;SDS011;56605;51.516;6.742;2022-12-07T00:32:42;22.23;;;13.80;;
31284;SDS011;56605;51.516;6.742;2022-12-07T00:35:07;19.60;;;11.73;;
31284;SDS011;56605;51.516;6.742;2022-12-07T00:37:32;22.88;;;12.23;;
31284;SDS011;56605;51.516;6.742;2022-12-07T00:39:58;20.88;;;12.15;;
31284;SDS011;56605;51.516;6.742;2022-12-07T00:42:23;25.90;;;14.87;;
31284;SDS011;56605;51.516;6.742;2022-12-07T00:44:48;21.10;;;13.97;;
31284;SDS011;56605;51.516;6.742;2022-12-07T00:47:13;17.60;;;12.13;;
31284;SDS011;56605;51.516;6.742;2022-12-07T00:49:38;22.13;;;13.23;;
31284;SDS011;56605;51.516;6.742;2022-12-07T00:52:03;22.33;;;13.63;;
31284;SDS011;56605;51.516;6.742;2022-12-07T00:54:28;21.50;;;14.07;;
31284;SDS011;56605;51.516;6.742;2022-12-07T00:56:54;22.83;;;12.75;;
31284;SDS011;56605;51.516;6.742;2022-12-07T00:59:19;25.58;;;15.38;;
31284;SDS011;56605;51.516;6.742;2022-12-07T01:01:44;26.87;;;13.63;;
31284;SDS011;56605;51.516;6.742;2022-12-07T01:04:09;21.67;;;13.40;;
31284;SDS011;56605;51.516;6.742;2022-12-07T01:06:34;23.55;;;13.75;;
31284;SDS011;56605;51.516;6.742;2022-12-07T01:09:00;27.15;;;14.23;;
31284;SDS011;56605;51.516;6.742;2022-12-07T01:11:26;24.00;;;14.07;;
31284;SDS011;56605;51.516;6.742;2022-12-07T01:13:53;20.38;;;12.82;;
31284;SDS011;56605;51.516;6.742;2022-12-07T01:16:18;21.77;;;13.60;;
31284;SDS011;56605;51.516;6.742;2022-12-07T01:18:45;23.58;;;13.88;;
31284;SDS011;56605;51.516;6.742;2022-12-07T01:21:12;21.33;;;13.95;;
31284;SDS011;56605;51.516;6.742;2022-12-07T01:23:38;22.48;;;13.35;;
31284;SDS011;56605;51.516;6.742;2022-12-07T01:26:05;20.65;;;13.20;;
31284;SDS011;56605;51.516;6.742;2022-12-07T01:28:31;21.10;;;13.82;;
31284;SDS011;56605;51.516;6.742;2022-12-07T01:33:21;28.93;;;14.90;;
31284;SDS011;56605;51.516;6.742;2022-12-07T01:35:46;22.10;;;13.85;;
31284;SDS011;56605;51.516;6.742;2022-12-07T01:38:11;24.67;;;14.35;;
31284;SDS011;56605;51.516;6.742;2022-12-07T01:40:37;24.02;;;13.93;;
31284;SDS011;56605;51.516;6.742;2022-12-07T01:43:02;21.42;;;13.73;;
31284;SDS011;56605;51.516;6.742;2022-12-07T01:45:36;25.42;;;14.05;;
31284;SDS011;56605;51.516;6.742;2022-12-07T01:48:02;25.80;;;14.13;;
31284;SDS011;56605;51.516;6.742;2022-12-07T01:50:28;26.83;;;14.65;;
31284;SDS011;56605;51.516;6.742;2022-12-07T01:52:56;21.58;;;13.13;;
31284;SDS011;56605;51.516;6.742;2022-12-07T01:55:22;22.23;;;12.35;;
31284;SDS011;56605;51.516;6.742;2022-12-07T01:57:49;25.23;;;14.48;;
31284;SDS011;56605;51.516;6.742;2022-12-07T02:00:14;19.45;;;12.57;;
31284;SDS011;56605;51.516;6.742;2022-12-07T02:05:24;24.27;;;13.77;;
31284;SDS011;56605;51.516;6.742;2022-12-07T03:09:15;25.02;;;14.50;;
31284;SDS011;56605;51.516;6.742;2022-12-07T03:11:50;28.40;;;14.15;;
31284;SDS011;56605;51.516;6.742;2022-12-07T03:16:46;21.92;;;12.50;;
31284;SDS011;56605;51.516;6.742;2022-12-07T03:19:13;26.05;;;14.80;;
31284;SDS011;56605;51.516;6.742;2022-12-07T03:21:40;28.98;;;15.38;;
31284;SDS011;56605;51.516;6.742;2022-12-07T03:24:10;22.67;;;14.05;;
31284;SDS011;56605;51.516;6.742;2022-12-07T03:26:38;25.17;;;13.93;;
31284;SDS011;56605;51.516;6.742;2022-12-07T03:29:06;23.58;;;14.10;;
31284;SDS011;56605;51.516;6.742;2022-12-07T03:31:33;30.20;;;14.57;;
31284;SDS011;56605;51.516;6.742;2022-12-07T03:34:14;24.55;;;14.25;;
31284;SDS011;56605;51.516;6.742;2022-12-07T03:37:45;26.63;;;14.88;;
31284;SDS011;56605;51.516;6.742;2022-12-07T03:39:38;30.50;;;15.15;;
31284;SDS011;56605;51.516;6.742;2022-12-07T03:42:05;27.58;;;14.98;;
31284;SDS011;56605;51.516;6.742;2022-12-07T03:44:30;24.50;;;14.63;;
31284;SDS011;56605;51.516;6.742;2022-12-07T03:47:06;27.75;;;14.35;;
31284;SDS011;56605;51.516;6.742;2022-12-07T03:49:37;24.48;;;14.02;;
31284;SDS011;56605;51.516;6.742;2022-12-07T03:54:36;24.73;;;13.10;;
31284;SDS011;56605;51.516;6.742;2022-12-07T03:57:02;27.23;;;13.98;;
31284;SDS011;56605;51.516;6.742;2022-12-07T03:59:29;23.52;;;13.77;;
31284;SDS011;56605;51.516;6.742;2022-12-07T04:01:55;23.40;;;14.95;;
31284;SDS011;56605;51.516;6.742;2022-12-07T04:04:21;23.55;;;13.57;;
31284;SDS011;56605;51.516;6.742;2022-12-07T04:06:47;23.35;;;13.50;;
31284;SDS011;56605;51.516;6.742;2022-12-07T04:09:12;28.00;;;14.18;;
31284;SDS011;56605;51.516;6.742;2022-12-07T04:11:39;23.70;;;14.27;;
31284;SDS011;56605;51.516;6.742;2022-12-07T04:14:04;30.00;;;14.45;;
31284;SDS011;56605;51.516;6.742;2022-12-07T04:16:47;24.75;;;15.30;;
31284;SDS011;56605;51.516;6.742;2022-12-07T04:19:13;27.70;;;13.45;;
31284;SDS011;56605;51.516;6.742;2022-12-07T04:21:38;22.90;;;13.52;;
31284;SDS011;56605;51.516;6.742;2022-12-07T04:24:04;29.58;;;13.77;;
31284;SDS011;56605;51.516;6.742;2022-12-07T04:26:29;23.38;;;14.45;;
31284;SDS011;56605;51.516;6.742;2022-12-07T04:28:54;26.13;;;13.98;;
31284;SDS011;56605;51.516;6.742;2022-12-07T04:31:19;26.63;;;13.80;;
31284;SDS011;56605;51.516;6.742;2022-12-07T04:33:45;29.33;;;14.65;;
31284;SDS011;56605;51.516;6.742;2022-12-07T04:36:10;25.50;;;14.55;;
31284;SDS011;56605;51.516;6.742;2022-12-07T04:38:35;28.10;;;13.88;;
31284;SDS011;56605;51.516;6.742;2022-12-07T04:41:04;23.85;;;14.43;;
31284;SDS011;56605;51.516;6.742;2022-12-07T04:43:29;26.90;;;14.50;;
31284;SDS011;56605;51.516;6.742;2022-12-07T04:45:54;30.08;;;16.30;;
31284;SDS011;56605;51.516;6.742;2022-12-07T04:48:19;27.67;;;15.93;;
31284;SDS011;56605;51.516;6.742;2022-12-07T04:50:47;25.88;;;14.13;;
31284;SDS011;56605;51.516;6.742;2022-12-07T04:53:12;33.00;;;15.40;;
31284;SDS011;56605;51.516;6.742;2022-12-07T04:55:37;26.67;;;13.60;;
31284;SDS011;56605;51.516;6.742;2022-12-07T04:58:02;27.10;;;14.57;;
31284;SDS011;56605;51.516;6.742;2022-12-07T05:00:27;26.33;;;14.23;;
31284;SDS011;56605;51.516;6.742;2022-12-07T05:02:53;21.92;;;13.18;;
31284;SDS011;56605;51.516;6.742;2022-12-07T05:05:18;26.40;;;14.57;;
31284;SDS011;56605;51.516;6.742;2022-12-07T05:07:43;27.05;;;14.80;;
31284;SDS011;56605;51.516;6.742;2022-12-07T05:10:08;28.45;;;14.52;;
31284;SDS011;56605;51.516;6.742;2022-12-07T05:12:33;25.02;;;13.60;;
31284;SDS011;56605;51.516;6.742;2022-12-07T05:14:59;25.63;;;13.05;;
31284;SDS011;56605;51.516;6.742;2022-12-07T05:17:24;26.27;;;13.97;;
31284;SDS011;56605;51.516;6.742;2022-12-07T05:19:49;38.08;;;14.68;;
31284;SDS011;56605;51.516;6.742;2022-12-07T05:22:14;26.60;;;14.20;;
31284;SDS011;56605;51.516;6.742;2022-12-07T05:24:40;26.52;;;13.48;;
31284;SDS011;56605;51.516;6.742;2022-12-07T05:27:05;25.95;;;12.57;;
31284;SDS011;56605;51.516;6.742;2022-12-07T05:29:30;25.27;;;12.83;;
31284;SDS011;56605;51.516;6.742;2022-12-07T05:31:55;23.35;;;12.60;;
31284;SDS011;56605;51.516;6.742;2022-12-07T05:34:21;26.90;;;13.30;;
31284;SDS011;56605;51.516;6.742;2022-12-07T05:36:46;29.42;;;13.18;;
31284;SDS011;56605;51.516;6.742;2022-12-07T05:39:11;26.75;;;13.00;;
31284;SDS011;56605;51.516;6.742;2022-12-07T05:41:36;30.20;;;12.68;;
31284;SDS011;56605;51.516;6.742;2022-12-07T05:44:20;26.83;;;13.05;;
31284;SDS011;56605;51.516;6.742;2022-12-07T05:46:45;21.15;;;12.13;;
31284;SDS011;56605;51.516;6.742;2022-12-07T05:49:10;21.75;;;12.10;;
31284;SDS011;56605;51.516;6.742;2022-12-07T05:51:35;24.65;;;14.38;;
31284;SDS011;56605;51.516;6.742;2022-12-07T05:54:00;26.63;;;13.57;;
31284;SDS011;56605;51.516;6.742;2022-12-07T05:56:26;24.17;;;13.18;;
31284;SDS011;56605;51.516;6.742;2022-12-07T05:58:52;25.02;;;12.77;;
31284;SDS011;56605;51.516;6.742;2022-12-07T06:01:35;19.95;;;11.88;;
31284;SDS011;56605;51.516;6.742;2022-12-07T06:04:01;27.98;;;12.32;;
31284;SDS011;56605;51.516;6.742;2022-12-07T06:06:26;23.67;;;12.35;;
31284;SDS011;56605;51.516;6.742;2022-12-07T06:08:51;21.25;;;11.07;;
31284;SDS011;56605;51.516;6.742;2022-12-07T06:11:16;21.90;;;11.95;;
31284;SDS011;56605;51.516;6.742;2022-12-07T06:14:00;21.42;;;9.93;;
31284;SDS011;56605;51.516;6.742;2022-12-07T06:16:25;20.95;;;11.38;;
31284;SDS011;56605;51.516;6.742;2022-12-07T06:18:50;25.25;;;12.13;;
31284;SDS011;56605;51.516;6.742;2022-12-07T06:21:15;20.35;;;11.77;;
31284;SDS011;56605;51.516;6.742;2022-12-07T06:23:40;26.25;;;11.85;;
31284;SDS011;56605;51.516;6.742;2022-12-07T06:26:06;20.00;;;11.48;;
31284;SDS011;56605;51.516;6.742;2022-12-07T06:28:31;21.52;;;11.40;;
31284;SDS011;56605;51.516;6.742;2022-12-07T06:31:00;21.65;;;11.35;;
31284;SDS011;56605;51.516;6.742;2022-12-07T06:33:25;20.20;;;10.73;;
31284;SDS011;56605;51.516;6.742;2022-12-07T06:35:51;23.40;;;10.77;;
31284;SDS011;56605;51.516;6.742;2022-12-07T06:38:16;19.98;;;10.38;;
31284;SDS011;56605;51.516;6.742;2022-12-07T06:40:41;24.95;;;11.02;;
31284;SDS011;56605;51.516;6.742;2022-12-07T06:43:06;22.90;;;11.13;;
31284;SDS011;56605;51.516;6.742;2022-12-07T06:45:31;20.42;;;10.63;;
31284;SDS011;56605;51.516;6.742;2022-12-07T06:47:56;21.63;;;11.05;;
31284;SDS011;56605;51.516;6.742;2022-12-07T06:50:22;21.93;;;10.07;;
31284;SDS011;56605;51.516;6.742;2022-12-07T06:52:47;24.40;;;10.40;;
31284;SDS011;56605;51.516;6.742;2022-12-07T06:55:12;17.35;;;10.98;;
31284;SDS011;56605;51.516;6.742;2022-12-07T06:57:37;17.38;;;9.98;;
31284;SDS011;56605;51.516;6.742;2022-12-07T07:00:02;21.17;;;10.77;;
31284;SDS011;56605;51.516;6.742;2022-12-07T07:02:28;19.95;;;10.57;;
31284;SDS011;56605;51.516;6.742;2022-12-07T07:04:53;23.52;;;11.25;;
31284;SDS011;56605;51.516;6.742;2022-12-07T07:07:18;20.83;;;11.05;;
31284;SDS011;56605;51.516;6.742;2022-12-07T07:09:43;20.98;;;11.38;;
31284;SDS011;56605;51.516;6.742;2022-12-07T07:12:08;23.33;;;11.65;;
31284;SDS011;56605;51.516;6.742;2022-12-07T07:14:34;26.30;;;11.38;;
31284;SDS011;56605;51.516;6.742;2022-12-07T07:16:59;21.45;;;11.80;;
31284;SDS011;56605;51.516;6.742;2022-12-07T07:19:24;19.77;;;10.43;;
31284;SDS011;56605;51.516;6.742;2022-12-07T07:21:49;22.60;;;11.60;;
31284;SDS011;56605;51.516;6.742;2022-12-07T07:24:14;27.70;;;11.27;;
31284;SDS011;56605;51.516;6.742;2022-12-07T07:26:39;22.92;;;10.38;;
31284;SDS011;56605;51.516;6.742;2022-12-07T07:29:05;20.05;;;10.60;;
31284;SDS011;56605;51.516;6.742;2022-12-07T07:31:30;21.45;;;10.30;;
31284;SDS011;56605;51.516;6.742;2022-12-07T07:33:55;17.13;;;10.35;;
31284;SDS011;56605;51.516;6.742;2022-12-07T07:36:20;22.30;;;10.77;;
31284;SDS011;56605;51.516;6.742;2022-12-07T07:38:45;17.20;;;9.87;;
31284;SDS011;56605;51.516;6.742;2022-12-07T07:41:10;22.70;;;10.45;;
31284;SDS011;56605;51.516;6.742;2022-12-07T07:43:36;19.63;;;9.63;;
31284;SDS011;56605;51.516;6.742;2022-12-07T07:46:01;18.33;;;9.45;;
31284;SDS011;56605;51.516;6.742;2022-12-07T07:48:26;18.70;;;9.48;;
31284;SDS011;56605;51.516;6.742;2022-12-07T07:50:51;22.65;;;9.85;;
31284;SDS011;56605;51.516;6.742;2022-12-07T07:53:17;19.27;;;10.32;;
31284;SDS011;56605;51.516;6.742;2022-12-07T07:55:49;18.20;;;9.02;;
31284;SDS011;56605;51.516;6.742;2022-12-07T07:58:14;15.38;;;9.70;;
31284;SDS011;56605;51.516;6.742;2022-12-07T08:00:39;19.83;;;9.75;;
31284;SDS011;56605;51.516;6.742;2022-12-07T08:03:05;17.17;;;9.35;;
31284;SDS011;56605;51.516;6.742;2022-12-07T08:05:30;17.77;;;8.97;;
31284;SDS011;56605;51.516;6.742;2022-12-07T08:07:55;20.35;;;9.05;;
31284;SDS011;56605;51.516;6.742;2022-12-07T08:10:22;18.80;;;9.50;;
31284;SDS011;56605;51.516;6.742;2022-12-07T08:12:47;20.38;;;10.45;;
31284;SDS011;56605;51.516;6.742;2022-12-07T08:15:31;17.95;;;8.02;;
31284;SDS011;56605;51.516;6.742;2022-12-07T08:17:56;22.77;;;8.35;;
31284;SDS011;56605;51.516;6.742;2022-12-07T08:20:21;18.48;;;9.75;;
31284;SDS011;56605;51.516;6.742;2022-12-07T08:22:46;12.90;;;8.40;;
31284;SDS011;56605;51.516;6.742;2022-12-07T08:25:11;17.65;;;8.77;;
31284;SDS011;56605;51.516;6.742;2022-12-07T08:27:37;13.07;;;7.68;;
31284;SDS011;56605;51.516;6.742;2022-12-07T08:30:02;23.77;;;8.70;;
31284;SDS011;56605;51.516;6.742;2022-12-07T08:32:27;15.25;;;8.50;;
31284;SDS011;56605;51.516;6.742;2022-12-07T08:34:52;17.90;;;8.38;;
31284;SDS011;56605;51.516;6.742;2022-12-07T08:37:17;13.88;;;7.00;;
31284;SDS011;56605;51.516;6.742;2022-12-07T08:39:43;17.45;;;8.30;;
31284;SDS011;56605;51.516;6.742;2022-12-07T08:42:08;12.98;;;7.82;;
31284;SDS011;56605;51.516;6.742;2022-12-07T08:44:33;17.23;;;8.32;;
31284;SDS011;56605;51.516;6.742;2022-12-07T08:46:59;21.50;;;9.23;;
31284;SDS011;56605;51.516;6.742;2022-12-07T08:49:43;15.75;;;7.60;;
31284;SDS011;56605;51.516;6.742;2022-12-07T08:52:08;17.05;;;8.27;;
31284;SDS011;56605;51.516;6.742;2022-12-07T08:54:34;16.40;;;8.40;;
31284;SDS011;56605;51.516;6.742;2022-12-07T08:57:00;18.02;;;9.15;;
31284;SDS011;56605;51.516;6.742;2022-12-07T08:59:26;17.73;;;8.23;;
31284;SDS011;56605;51.516;6.742;2022-12-07T09:01:51;18.05;;;8.73;;
31284;SDS011;56605;51.516;6.742;2022-12-07T09:04:16;15.38;;;8.52;;
31284;SDS011;56605;51.516;6.742;2022-12-07T09:06:42;18.98;;;8.63;;
31284;SDS011;56605;51.516;6.742;2022-12-07T09:09:07;12.20;;;7.18;;
31284;SDS011;56605;51.516;6.742;2022-12-07T09:11:33;13.98;;;7.60;;
31284;SDS011;56605;51.516;6.742;2022-12-07T09:13:58;17.17;;;8.52;;
31284;SDS011;56605;51.516;6.742;2022-12-07T09:16:23;16.23;;;8.25;;
31284;SDS011;56605;51.516;6.742;2022-12-07T09:18:49;15.23;;;8.48;;
31284;SDS011;56605;51.516;6.742;2022-12-07T09:21:14;17.70;;;7.30;;
31284;SDS011;56605;51.516;6.742;2022-12-07T09:23:40;14.45;;;7.60;;
31284;SDS011;56605;51.516;6.742;2022-12-07T09:26:06;19.20;;;8.90;;
31284;SDS011;56605;51.516;6.742;2022-12-07T09:28:31;10.48;;;7.13;;
31284;SDS011;56605;51.516;6.742;2022-12-07T09:30:56;14.50;;;8.02;;
31284;SDS011;56605;51.516;6.742;2022-12-07T09:33:21;11.52;;;7.03;;
31284;SDS011;56605;51.516;6.742;2022-12-07T09:35:47;14.15;;;8.25;;
31284;SDS011;56605;51.516;6.742;2022-12-07T09:38:13;20.33;;;8.07;;
31284;SDS011;56605;51.516;6.742;2022-12-07T09:40:38;16.27;;;7.78;;
31284;SDS011;56605;51.516;6.742;2022-12-07T09:43:03;15.40;;;8.30;;
31284;SDS011;56605;51.516;6.742;2022-12-07T09:45:35;12.70;;;7.68;;
31284;SDS011;56605;51.516;6.742;2022-12-07T09:48:02;17.40;;;8.32;;
31284;SDS011;56605;51.516;6.742;2022-12-07T09:50:27;18.88;;;8.25;;
31284;SDS011;56605;51.516;6.742;2022-12-07T09:52:53;20.65;;;7.63;;
31284;SDS011;56605;51.516;6.742;2022-12-07T09:55:22;17.70;;;7.97;;
31284;SDS011;56605;51.516;6.742;2022-12-07T09:57:49;18.63;;;7.53;;
31284;SDS011;56605;51.516;6.742;2022-12-07T10:00:17;19.20;;;7.53;;
31284;SDS011;56605;51.516;6.742;2022-12-07T10:02:54;13.25;;;6.53;;
31284;SDS011;56605;51.516;6.742;2022-12-07T10:05:27;16.50;;;7.30;;
31284;SDS011;56605;51.516;6.742;2022-12-07T10:07:53;17.05;;;6.80;;
31284;SDS011;56605;51.516;6.742;2022-12-07T10:10:21;16.98;;;6.93;;
31284;SDS011;56605;51.516;6.742;2022-12-07T10:23:29;13.90;;;5.82;;
31284;SDS011;56605;51.516;6.742;2022-12-07T10:25:54;15.90;;;6.32;;
31284;SDS011;56605;51.516;6.742;2022-12-07T10:28:20;8.32;;;5.05;;
31284;SDS011;56605;51.516;6.742;2022-12-07T10:30:53;8.25;;;5.10;;
31284;SDS011;56605;51.516;6.742;2022-12-07T10:35:59;12.45;;;5.22;;
31284;SDS011;56605;51.516;6.742;2022-12-07T10:38:26;10.90;;;4.63;;
31284;SDS011;56605;51.516;6.742;2022-12-07T10:41:04;10.18;;;5.07;;
31284;SDS011;56605;51.516;6.742;2022-12-07T10:43:30;11.82;;;4.55;;
31284;SDS011;56605;51.516;6.742;2022-12-07T10:48:40;13.80;;;4.72;;
31284;SDS011;56605;51.516;6.742;2022-12-07T10:51:16;9.20;;;3.72;;
31284;SDS011;56605;51.516;6.742;2022-12-07T11:01:42;6.95;;;3.03;;
31284;SDS011;56605;51.516;6.742;2022-12-07T11:06:59;10.20;;;3.75;;
31284;SDS011;56605;51.516;6.742;2022-12-07T11:09:29;6.57;;;3.05;;
31284;SDS011;56605;51.516;6.742;2022-12-07T11:14:32;12.95;;;3.55;;
31284;SDS011;56605;51.516;6.742;2022-12-07T11:17:03;14.15;;;2.83;;
31284;SDS011;56605;51.516;6.742;2022-12-07T11:19:42;6.43;;;3.05;;
31284;SDS011;56605;51.516;6.742;2022-12-07T11:30:46;7.95;;;2.75;;
31284;SDS011;56605;51.516;6.742;2022-12-07T11:33:15;8.90;;;2.50;;
31284;SDS011;56605;51.516;6.742;2022-12-07T11:38:15;7.70;;;2.65;;
31284;SDS011;56605;51.516;6.742;2022-12-07T11:40:43;6.82;;;2.38;;
31284;SDS011;56605;51.516;6.742;2022-12-07T11:45:44;11.82;;;2.88;;
31284;SDS011;56605;51.516;6.742;2022-12-07T11:48:32;6.03;;;2.72;;
31284;SDS011;56605;51.516;6.742;2022-12-07T11:50:59;9.55;;;2.72;;
31284;SDS011;56605;51.516;6.742;2022-12-07T11:53:36;8.95;;;2.78;;
31284;SDS011;56605;51.516;6.742;2022-12-07T11:56:16;6.57;;;3.17;;
31284;SDS011;56605;51.516;6.742;2022-12-07T12:06:42;7.47;;;3.08;;
31284;SDS011;56605;51.516;6.742;2022-12-07T12:09:14;5.30;;;3.70;;
31284;SDS011;56605;51.516;6.742;2022-12-07T12:11:49;6.60;;;3.17;;
31284;SDS011;56605;51.516;6.742;2022-12-07T12:14:27;17.35;;;3.85;;
31284;SDS011;56605;51.516;6.742;2022-12-07T12:19:44;6.47;;;3.90;;
31284;SDS011;56605;51.516;6.742;2022-12-07T12:22:20;6.00;;;3.20;;
31284;SDS011;56605;51.516;6.742;2022-12-07T12:24:55;13.48;;;3.60;;
31284;SDS011;56605;51.516;6.742;2022-12-07T12:27:27;13.25;;;3.67;;
31284;SDS011;56605;51.516;6.742;2022-12-07T12:29:56;7.68;;;4.22;;
31284;SDS011;56605;51.516;6.742;2022-12-07T12:32:28;8.05;;;3.33;;
31284;SDS011;56605;51.516;6.742;2022-12-07T12:35:02;12.98;;;4.47;;
31284;SDS011;56605;51.516;6.742;2022-12-07T12:42:53;10.30;;;3.15;;
31284;SDS011;56605;51.516;6.742;2022-12-07T12:47:52;9.43;;;3.33;;
31284;SDS011;56605;51.516;6.742;2022-12-07T12:57:33;11.23;;;2.75;;
31284;SDS011;56605;51.516;6.742;2022-12-07T12:59:59;8.18;;;2.75;;
31284;SDS011;56605;51.516;6.742;2022-12-07T13:02:26;7.35;;;2.92;;
31284;SDS011;56605;51.516;6.742;2022-12-07T13:05:03;6.57;;;2.20;;
31284;SDS011;56605;51.516;6.742;2022-12-07T13:10:22;11.18;;;2.72;;
31284;SDS011;56605;51.516;6.742;2022-12-07T13:12:59;5.75;;;2.22;;
31284;SDS011;56605;51.516;6.742;2022-12-07T13:15:35;7.93;;;2.60;;
31284;SDS011;56605;51.516;6.742;2022-12-07T13:18:01;4.53;;;1.95;;
31284;SDS011;56605;51.516;6.742;2022-12-07T13:20:40;6.10;;;2.85;;
31284;SDS011;56605;51.516;6.742;2022-12-07T13:23:05;10.82;;;3.05;;
31284;SDS011;56605;51.516;6.742;2022-12-07T13:25:35;2.67;;;1.98;;
31284;SDS011;56605;51.516;6.742;2022-12-07T13:28:02;5.50;;;2.42;;
31284;SDS011;56605;51.516;6.742;2022-12-07T13:30:32;6.80;;;2.35;;
31284;SDS011;56605;51.516;6.742;2022-12-07T13:33:08;6.55;;;2.65;;
31284;SDS011;56605;51.516;6.742;2022-12-07T13:35:34;6.13;;;2.40;;
31284;SDS011;56605;51.516;6.742;2022-12-07T13:38:22;7.00;;;2.65;;
31284;SDS011;56605;51.516;6.742;2022-12-07T13:41:01;6.18;;;2.80;;
31284;SDS011;56605;51.516;6.742;2022-12-07T13:43:27;10.45;;;2.67;;
31284;SDS011;56605;51.516;6.742;2022-12-07T13:45:56;10.60;;;2.75;;
31284;SDS011;56605;51.516;6.742;2022-12-07T13:54:10;10.55;;;2.25;;
31284;SDS011;56605;51.516;6.742;2022-12-07T13:56:35;7.65;;;2.20;;
31284;SDS011;56605;51.516;6.742;2022-12-07T13:59:01;6.15;;;2.42;;
31284;SDS011;56605;51.516;6.742;2022-12-07T14:01:30;6.35;;;2.30;;
31284;SDS011;56605;51.516;6.742;2022-12-07T14:03:55;6.70;;;2.47;;
31284;SDS011;56605;51.516;6.742;2022-12-07T14:06:27;5.15;;;2.53;;
31284;SDS011;56605;51.516;6.742;2022-12-07T14:09:35;5.28;;;2.05;;
31284;SDS011;56605;51.516;6.742;2022-12-07T14:11:41;7.00;;;2.10;;
31284;SDS011;56605;51.516;6.742;2022-12-07T14:14:11;7.32;;;2.55;;
31284;SDS011;56605;51.516;6.742;2022-12-07T14:16:38;9.32;;;2.90;;
31284;SDS011;56605;51.516;6.742;2022-12-07T14:19:04;7.72;;;1.70;;
31284;SDS011;56605;51.516;6.742;2022-12-07T14:21:31;7.53;;;2.13;;
31284;SDS011;56605;51.516;6.742;2022-12-07T14:24:16;6.38;;;1.83;;
31284;SDS011;56605;51.516;6.742;2022-12-07T14:26:42;12.77;;;1.98;;
31284;SDS011;56605;51.516;6.742;2022-12-07T14:29:21;7.00;;;2.20;;
31284;SDS011;56605;51.516;6.742;2022-12-07T14:31:46;9.73;;;2.10;;
31284;SDS011;56605;51.516;6.742;2022-12-07T14:34:12;7.77;;;2.00;;
31284;SDS011;56605;51.516;6.742;2022-12-07T14:36:37;5.65;;;1.98;;
31284;SDS011;56605;51.516;6.742;2022-12-07T14:39:02;8.90;;;1.73;;
31284;SDS011;56605;51.516;6.742;2022-12-07T14:41:27;9.45;;;2.15;;
31284;SDS011;56605;51.516;6.742;2022-12-07T14:44:12;7.50;;;2.00;;
31284;SDS011;56605;51.516;6.742;2022-12-07T14:46:37;3.85;;;1.90;;
31284;SDS011;56605;51.516;6.742;2022-12-07T14:49:02;6.25;;;2.33;;
31284;SDS011;56605;51.516;6.742;2022-12-07T14:51:27;5.10;;;1.83;;
31284;SDS011;56605;51.516;6.742;2022-12-07T14:53:52;5.03;;;2.10;;
31284;SDS011;56605;51.516;6.742;2022-12-07T14:56:18;8.48;;;2.00;;
31284;SDS011;56605;51.516;6.742;2022-12-07T14:58:43;4.82;;;2.25;;
31284;SDS011;56605;51.516;6.742;2022-12-07T15:01:08;9.77;;;3.55;;
31284;SDS011;56605;51.516;6.742;2022-12-07T15:03:36;8.55;;;2.83;;
31284;SDS011;56605;51.516;6.742;2022-12-07T15:06:04;5.93;;;2.65;;
31284;SDS011;56605;51.516;6.742;2022-12-07T15:08:30;10.57;;;3.13;;
31284;SDS011;56605;51.516;6.742;2022-12-07T15:10:55;8.52;;;2.88;;
31284;SDS011;56605;51.516;6.742;2022-12-07T15:13:20;3.88;;;2.58;;
31284;SDS011;56605;51.516;6.742;2022-12-07T15:16:04;8.85;;;3.15;;
31284;SDS011;56605;51.516;6.742;2022-12-07T15:18:29;5.70;;;3.15;;
31284;SDS011;56605;51.516;6.742;2022-12-07T15:20:55;11.15;;;3.20;;
31284;SDS011;56605;51.516;6.742;2022-12-07T15:23:20;8.50;;;2.90;;
31284;SDS011;56605;51.516;6.742;2022-12-07T15:25:46;17.50;;;7.15;;
31284;SDS011;56605;51.516;6.742;2022-12-07T15:28:12;7.70;;;3.20;;
31284;SDS011;56605;51.516;6.742;2022-12-07T15:30:38;12.63;;;4.03;;
31284;SDS011;56605;51.516;6.742;2022-12-07T15:33:03;7.45;;;4.07;;
31284;SDS011;56605;51.516;6.742;2022-12-07T15:35:28;7.63;;;3.70;;
31284;SDS011;56605;51.516;6.742;2022-12-07T15:37:53;12.55;;;3.92;;
31284;SDS011;56605;51.516;6.742;2022-12-07T15:40:18;10.35;;;3.97;;
31284;SDS011;56605;51.516;6.742;2022-12-07T15:42:43;7.57;;;3.60;;
31284;SDS011;56605;51.516;6.742;2022-12-07T15:45:10;5.03;;;3.20;;
31284;SDS011;56605;51.516;6.742;2022-12-07T15:50:01;15.05;;;4.13;;
31284;SDS011;56605;51.516;6.742;2022-12-07T15:52:27;9.82;;;3.53;;
31284;SDS011;56605;51.516;6.742;2022-12-07T15:54:52;7.63;;;3.47;;
31284;SDS011;56605;51.516;6.742;2022-12-07T15:57:17;9.20;;;4.37;;
31284;SDS011;56605;51.516;6.742;2022-12-07T15:59:42;10.65;;;3.97;;
31284;SDS011;56605;51.516;6.742;2022-12-07T16:02:08;9.93;;;4.35;;
31284;SDS011;56605;51.516;6.742;2022-12-07T16:04:35;8.48;;;3.53;;
31284;SDS011;56605;51.516;6.742;2022-12-07T16:07:00;10.52;;;3.92;;
31284;SDS011;56605;51.516;6.742;2022-12-07T16:09:25;13.65;;;3.80;;
31284;SDS011;56605;51.516;6.742;2022-12-07T16:11:51;11.82;;;4.05;;
31284;SDS011;56605;51.516;6.742;2022-12-07T16:14:17;12.70;;;3.63;;
31284;SDS011;56605;51.516;6.742;2022-12-07T16:16:42;12.57;;;3.50;;
31284;SDS011;56605;51.516;6.742;2022-12-07T16:19:07;14.02;;;4.03;;
31284;SDS011;56605;51.516;6.742;2022-12-07T16:21:34;9.27;;;3.90;;
31284;SDS011;56605;51.516;6.742;2022-12-07T16:24:00;14.95;;;3.80;;
31284;SDS011;56605;51.516;6.742;2022-12-07T16:26:25;6.20;;;3.63;;
31284;SDS011;56605;51.516;6.742;2022-12-07T16:28:51;6.68;;;3.20;;
31284;SDS011;56605;51.516;6.742;2022-12-07T16:31:17;8.25;;;3.03;;
31284;SDS011;56605;51.516;6.742;2022-12-07T16:33:43;12.15;;;3.80;;
31284;SDS011;56605;51.516;6.742;2022-12-07T16:36:09;10.38;;;3.22;;
31284;SDS011;56605;51.516;6.742;2022-12-07T16:38:35;7.75;;;3.13;;
31284;SDS011;56605;51.516;6.742;2022-12-07T16:41:01;5.80;;;2.90;;
31284;SDS011;56605;51.516;6.742;2022-12-07T16:43:26;5.85;;;3.15;;
31284;SDS011;56605;51.516;6.742;2022-12-07T16:45:51;7.15;;;3.42;;
31284;SDS011;56605;51.516;6.742;2022-12-07T16:48:16;10.38;;;4.13;;
31284;SDS011;56605;51.516;6.742;2022-12-07T16:50:42;3.97;;;2.83;;
31284;SDS011;56605;51.516;6.742;2022-12-07T16:53:08;7.47;;;3.30;;
31284;SDS011;56605;51.516;6.742;2022-12-07T16:55:40;8.68;;;3.80;;
31284;SDS011;56605;51.516;6.742;2022-12-07T16:58:06;12.27;;;3.42;;
31284;SDS011;56605;51.516;6.742;2022-12-07T17:00:31;7.35;;;3.85;;
31284;SDS011;56605;51.516;6.742;2022-12-07T17:02:56;7.03;;;3.40;;